Hauptseite
METAR-TAF:

METAR-TAF

Flughäfen :

Zagreb, Kroatien

Flughafen Zagreb

Breite: 45-44N, Länge: 016-04E, Höhe: 106 m

Beobachtung

Neuester Wetterbericht von vor 21 Minuten, um 05:00 UTC
Wind 1 kt aus Südwest
Temperatur 1°C
Luftfeuchtigkeit 93%
Luftdruck 1019 hPa
Sichtweite 10 km oder mehr
keine Wolken unter 1500 m und keine Kumulonimbus oder Gewitterwolken

METAR: LDZA 260500Z 22001KT CAVOK 01/M00 Q1019 NOSIG

Zeit: 07:21 (05:21 UTC)

Prognose

Neuester Wetterbericht von vor 5 Stunden und 56 Minuten, um 23:25 UTC
Gültige Prognose vom 26 um 00 UTC bis 26 um 24 UTC
Wind 5 kt aus Nordost
Sichtweite 10 km oder mehr
Aufgelockert bewölkt in der Höhe von 4000 ft
Übergehend zu
vom 26 um 05 UTC bis 26 um 07 UTC
Wind 8 kt aus Nordost
Zeitweise
vom 26 um 06 UTC bis 26 um 10 UTC
Wind 15 kt aus Nordost

TAF: LDZA 252325Z 2600/2624 05005KT 9999 SCT040 TX12/2615Z TN03/2605Z BECMG 2605/2607 04008KT TEMPO 2606/2610 04015KT

Wetterbeobachtungen und Prognosen von mehr als 4000 Flughäfen (METAR und TAF Bericht).

Die verfügbaren Stationen werden durch gelbe und rote Markierungen auf der Karte dargestellt.

Führen Sie die Maus auf sie, um den Namen der Station zu sehen.

Darauf klicken, um die Beobachtung von Wetterbeobachtungen und Prognosen zu sehen.

Um die Karte zu ändern : klicken Sie auf den grünen Tasten mit einem schwarzen Kreuz Zum Vergrößern, auf den grünen Button mit einem Gedankenstrich zu verkleinern, oder auf die grünen Pfeile für benachbarte Karten.


METAR-TAF: